sensor_id;sensor_type;location;lat;lon;timestamp;P1;durP1;ratioP1;P2;durP2;ratioP2
53833;SDS011;39735;51.432;5.482;2023-11-21T00:00:17;30.67;;;17.52;;
53833;SDS011;39735;51.432;5.482;2023-11-21T00:02:43;25.08;;;15.05;;
53833;SDS011;39735;51.432;5.482;2023-11-21T00:05:09;30.08;;;13.63;;
53833;SDS011;39735;51.432;5.482;2023-11-21T00:07:35;25.65;;;13.65;;
53833;SDS011;39735;51.432;5.482;2023-11-21T00:10:00;19.30;;;14.55;;
53833;SDS011;39735;51.432;5.482;2023-11-21T00:12:26;25.88;;;15.18;;
53833;SDS011;39735;51.432;5.482;2023-11-21T00:14:51;21.13;;;14.82;;
53833;SDS011;39735;51.432;5.482;2023-11-21T00:17:16;30.25;;;12.88;;
53833;SDS011;39735;51.432;5.482;2023-11-21T00:19:41;42.95;;;16.60;;
53833;SDS011;39735;51.432;5.482;2023-11-21T00:22:08;21.85;;;13.20;;
53833;SDS011;39735;51.432;5.482;2023-11-21T00:24:34;20.92;;;11.70;;
53833;SDS011;39735;51.432;5.482;2023-11-21T00:26:59;24.33;;;11.90;;
53833;SDS011;39735;51.432;5.482;2023-11-21T00:29:24;25.30;;;12.30;;
53833;SDS011;39735;51.432;5.482;2023-11-21T00:31:50;35.20;;;15.07;;
53833;SDS011;39735;51.432;5.482;2023-11-21T00:34:16;22.23;;;12.85;;
53833;SDS011;39735;51.432;5.482;2023-11-21T00:36:41;29.00;;;11.40;;
53833;SDS011;39735;51.432;5.482;2023-11-21T00:39:06;25.25;;;13.07;;
53833;SDS011;39735;51.432;5.482;2023-11-21T00:41:32;20.52;;;13.82;;
53833;SDS011;39735;51.432;5.482;2023-11-21T00:43:57;29.17;;;13.15;;
53833;SDS011;39735;51.432;5.482;2023-11-21T00:46:24;19.67;;;13.00;;
53833;SDS011;39735;51.432;5.482;2023-11-21T00:48:52;18.35;;;12.35;;
53833;SDS011;39735;51.432;5.482;2023-11-21T00:51:17;21.73;;;13.00;;
53833;SDS011;39735;51.432;5.482;2023-11-21T00:53:42;24.17;;;12.93;;
53833;SDS011;39735;51.432;5.482;2023-11-21T00:56:07;20.67;;;14.82;;
53833;SDS011;39735;51.432;5.482;2023-11-21T00:58:33;27.73;;;13.20;;
53833;SDS011;39735;51.432;5.482;2023-11-21T01:00:58;25.98;;;12.10;;
53833;SDS011;39735;51.432;5.482;2023-11-21T01:03:23;21.88;;;12.13;;
53833;SDS011;39735;51.432;5.482;2023-11-21T01:05:49;25.10;;;11.87;;
53833;SDS011;39735;51.432;5.482;2023-11-21T01:08:15;27.63;;;13.43;;
53833;SDS011;39735;51.432;5.482;2023-11-21T01:10:40;34.80;;;14.48;;
53833;SDS011;39735;51.432;5.482;2023-11-21T01:13:05;25.75;;;14.35;;
53833;SDS011;39735;51.432;5.482;2023-11-21T01:15:32;29.98;;;14.80;;
53833;SDS011;39735;51.432;5.482;2023-11-21T01:17:57;20.88;;;14.10;;
53833;SDS011;39735;51.432;5.482;2023-11-21T01:20:22;34.35;;;17.20;;
53833;SDS011;39735;51.432;5.482;2023-11-21T01:22:47;27.85;;;14.48;;
53833;SDS011;39735;51.432;5.482;2023-11-21T01:25:14;21.80;;;13.70;;
53833;SDS011;39735;51.432;5.482;2023-11-21T01:27:39;21.65;;;13.35;;
53833;SDS011;39735;51.432;5.482;2023-11-21T01:30:04;31.60;;;14.82;;
53833;SDS011;39735;51.432;5.482;2023-11-21T01:32:32;23.73;;;14.45;;
53833;SDS011;39735;51.432;5.482;2023-11-21T01:34:57;38.10;;;14.10;;
53833;SDS011;39735;51.432;5.482;2023-11-21T01:37:22;27.75;;;13.23;;
53833;SDS011;39735;51.432;5.482;2023-11-21T01:39:49;26.45;;;14.77;;
53833;SDS011;39735;51.432;5.482;2023-11-21T01:42:14;36.60;;;16.23;;
53833;SDS011;39735;51.432;5.482;2023-11-21T01:44:39;26.05;;;13.68;;
53833;SDS011;39735;51.432;5.482;2023-11-21T01:47:05;25.40;;;15.32;;
53833;SDS011;39735;51.432;5.482;2023-11-21T01:49:34;29.27;;;15.52;;
53833;SDS011;39735;51.432;5.482;2023-11-21T01:51:59;28.92;;;15.73;;
53833;SDS011;39735;51.432;5.482;2023-11-21T01:54:24;33.08;;;15.38;;
53833;SDS011;39735;51.432;5.482;2023-11-21T01:56:50;23.00;;;14.10;;
53833;SDS011;39735;51.432;5.482;2023-11-21T01:59:17;27.65;;;13.82;;
53833;SDS011;39735;51.432;5.482;2023-11-21T02:01:43;19.38;;;13.25;;
53833;SDS011;39735;51.432;5.482;2023-11-21T02:04:08;21.20;;;14.45;;
53833;SDS011;39735;51.432;5.482;2023-11-21T02:06:34;34.53;;;13.95;;
53833;SDS011;39735;51.432;5.482;2023-11-21T02:09:01;35.28;;;16.40;;
53833;SDS011;39735;51.432;5.482;2023-11-21T02:11:26;27.35;;;14.27;;
53833;SDS011;39735;51.432;5.482;2023-11-21T02:13:52;31.85;;;15.02;;
53833;SDS011;39735;51.432;5.482;2023-11-21T02:16:19;22.70;;;16.10;;
53833;SDS011;39735;51.432;5.482;2023-11-21T02:18:45;33.92;;;15.30;;
53833;SDS011;39735;51.432;5.482;2023-11-21T02:21:12;39.15;;;16.92;;
53833;SDS011;39735;51.432;5.482;2023-11-21T02:23:37;54.15;;;18.52;;
53833;SDS011;39735;51.432;5.482;2023-11-21T02:26:07;50.58;;;19.02;;
53833;SDS011;39735;51.432;5.482;2023-11-21T02:28:32;61.55;;;20.00;;
53833;SDS011;39735;51.432;5.482;2023-11-21T02:30:58;56.75;;;19.00;;
53833;SDS011;39735;51.432;5.482;2023-11-21T02:33:24;62.97;;;21.35;;
53833;SDS011;39735;51.432;5.482;2023-11-21T02:35:49;65.72;;;20.35;;
53833;SDS011;39735;51.432;5.482;2023-11-21T02:38:14;74.85;;;20.55;;
53833;SDS011;39735;51.432;5.482;2023-11-21T02:40:40;78.15;;;21.67;;
53833;SDS011;39735;51.432;5.482;2023-11-21T02:43:06;47.58;;;18.20;;
53833;SDS011;39735;51.432;5.482;2023-11-21T02:45:31;73.20;;;18.25;;
53833;SDS011;39735;51.432;5.482;2023-11-21T02:47:56;44.75;;;17.95;;
53833;SDS011;39735;51.432;5.482;2023-11-21T02:50:22;56.72;;;20.85;;
53833;SDS011;39735;51.432;5.482;2023-11-21T02:52:47;71.38;;;23.73;;
53833;SDS011;39735;51.432;5.482;2023-11-21T02:55:13;100.97;;;25.70;;
53833;SDS011;39735;51.432;5.482;2023-11-21T02:57:38;56.15;;;19.20;;
53833;SDS011;39735;51.432;5.482;2023-11-21T03:00:03;35.42;;;20.85;;
53833;SDS011;39735;51.432;5.482;2023-11-21T03:02:32;31.38;;;18.50;;
53833;SDS011;39735;51.432;5.482;2023-11-21T03:04:57;43.60;;;21.15;;
53833;SDS011;39735;51.432;5.482;2023-11-21T03:07:23;44.47;;;20.15;;
53833;SDS011;39735;51.432;5.482;2023-11-21T03:09:48;75.22;;;21.55;;
53833;SDS011;39735;51.432;5.482;2023-11-21T03:12:13;104.97;;;24.52;;
53833;SDS011;39735;51.432;5.482;2023-11-21T03:14:39;61.28;;;25.20;;
53833;SDS011;39735;51.432;5.482;2023-11-21T03:17:04;42.03;;;20.42;;
53833;SDS011;39735;51.432;5.482;2023-11-21T03:19:30;59.92;;;20.27;;
53833;SDS011;39735;51.432;5.482;2023-11-21T03:21:55;65.78;;;20.00;;
53833;SDS011;39735;51.432;5.482;2023-11-21T03:24:20;88.25;;;23.42;;
53833;SDS011;39735;51.432;5.482;2023-11-21T03:26:47;73.30;;;21.38;;
53833;SDS011;39735;51.432;5.482;2023-11-21T03:29:12;65.65;;;23.17;;
53833;SDS011;39735;51.432;5.482;2023-11-21T03:31:38;47.50;;;20.30;;
53833;SDS011;39735;51.432;5.482;2023-11-21T03:34:03;67.40;;;22.67;;
53833;SDS011;39735;51.432;5.482;2023-11-21T03:36:28;47.28;;;20.50;;
53833;SDS011;39735;51.432;5.482;2023-11-21T03:38:54;66.80;;;21.38;;
53833;SDS011;39735;51.432;5.482;2023-11-21T03:41:20;73.15;;;19.55;;
53833;SDS011;39735;51.432;5.482;2023-11-21T03:43:45;59.70;;;24.35;;
53833;SDS011;39735;51.432;5.482;2023-11-21T03:46:11;62.72;;;21.23;;
53833;SDS011;39735;51.432;5.482;2023-11-21T03:48:37;88.50;;;23.45;;
53833;SDS011;39735;51.432;5.482;2023-11-21T03:51:02;54.85;;;21.73;;
53833;SDS011;39735;51.432;5.482;2023-11-21T03:53:28;47.75;;;20.60;;
53833;SDS011;39735;51.432;5.482;2023-11-21T03:55:53;48.53;;;19.23;;
53833;SDS011;39735;51.432;5.482;2023-11-21T03:58:18;52.95;;;19.90;;
53833;SDS011;39735;51.432;5.482;2023-11-21T04:00:43;76.05;;;20.88;;
53833;SDS011;39735;51.432;5.482;2023-11-21T04:03:09;85.07;;;20.05;;
53833;SDS011;39735;51.432;5.482;2023-11-21T04:05:34;37.40;;;19.25;;
53833;SDS011;39735;51.432;5.482;2023-11-21T04:07:59;78.15;;;19.23;;
53833;SDS011;39735;51.432;5.482;2023-11-21T04:10:24;92.63;;;19.92;;
53833;SDS011;39735;51.432;5.482;2023-11-21T04:12:49;88.05;;;20.13;;
53833;SDS011;39735;51.432;5.482;2023-11-21T04:15:15;87.93;;;18.23;;
53833;SDS011;39735;51.432;5.482;2023-11-21T04:17:40;88.85;;;18.52;;
53833;SDS011;39735;51.432;5.482;2023-11-21T04:20:06;67.70;;;19.73;;
53833;SDS011;39735;51.432;5.482;2023-11-21T04:22:35;63.85;;;18.65;;
53833;SDS011;39735;51.432;5.482;2023-11-21T04:25:01;51.25;;;17.98;;
53833;SDS011;39735;51.432;5.482;2023-11-21T04:27:26;86.28;;;20.02;;
53833;SDS011;39735;51.432;5.482;2023-11-21T04:29:52;115.35;;;19.88;;
53833;SDS011;39735;51.432;5.482;2023-11-21T04:32:17;86.85;;;20.17;;
53833;SDS011;39735;51.432;5.482;2023-11-21T04:34:42;29.65;;;19.08;;
53833;SDS011;39735;51.432;5.482;2023-11-21T04:37:07;85.63;;;19.80;;
53833;SDS011;39735;51.432;5.482;2023-11-21T04:39:34;78.25;;;18.30;;
53833;SDS011;39735;51.432;5.482;2023-11-21T04:41:59;35.30;;;19.17;;
53833;SDS011;39735;51.432;5.482;2023-11-21T04:44:24;30.48;;;18.85;;
53833;SDS011;39735;51.432;5.482;2023-11-21T04:46:50;90.47;;;19.92;;
53833;SDS011;39735;51.432;5.482;2023-11-21T04:49:15;27.95;;;18.20;;
53833;SDS011;39735;51.432;5.482;2023-11-21T04:51:40;28.85;;;17.50;;
53833;SDS011;39735;51.432;5.482;2023-11-21T04:54:05;33.88;;;17.92;;
53833;SDS011;39735;51.432;5.482;2023-11-21T04:56:31;33.30;;;19.40;;
53833;SDS011;39735;51.432;5.482;2023-11-21T04:58:56;34.20;;;17.17;;
53833;SDS011;39735;51.432;5.482;2023-11-21T05:01:21;34.63;;;19.42;;
53833;SDS011;39735;51.432;5.482;2023-11-21T05:03:47;31.20;;;19.50;;
53833;SDS011;39735;51.432;5.482;2023-11-21T05:06:12;32.15;;;20.23;;
53833;SDS011;39735;51.432;5.482;2023-11-21T05:08:39;48.55;;;21.77;;
53833;SDS011;39735;51.432;5.482;2023-11-21T05:11:04;47.20;;;19.65;;
53833;SDS011;39735;51.432;5.482;2023-11-21T05:13:29;25.30;;;19.77;;
53833;SDS011;39735;51.432;5.482;2023-11-21T05:15:55;26.83;;;18.20;;
53833;SDS011;39735;51.432;5.482;2023-11-21T05:18:22;41.03;;;18.75;;
53833;SDS011;39735;51.432;5.482;2023-11-21T05:20:47;30.48;;;18.45;;
53833;SDS011;39735;51.432;5.482;2023-11-21T05:23:12;31.15;;;17.63;;
53833;SDS011;39735;51.432;5.482;2023-11-21T05:25:38;33.80;;;21.13;;
53833;SDS011;39735;51.432;5.482;2023-11-21T05:28:03;32.20;;;17.73;;
53833;SDS011;39735;51.432;5.482;2023-11-21T05:30:29;35.72;;;20.15;;
53833;SDS011;39735;51.432;5.482;2023-11-21T05:32:54;31.85;;;18.38;;
53833;SDS011;39735;51.432;5.482;2023-11-21T05:35:19;31.67;;;18.35;;
53833;SDS011;39735;51.432;5.482;2023-11-21T05:37:45;38.42;;;20.48;;
53833;SDS011;39735;51.432;5.482;2023-11-21T05:40:10;41.08;;;19.42;;
53833;SDS011;39735;51.432;5.482;2023-11-21T05:42:36;34.22;;;21.23;;
53833;SDS011;39735;51.432;5.482;2023-11-21T05:45:01;24.65;;;18.10;;
53833;SDS011;39735;51.432;5.482;2023-11-21T05:47:45;36.63;;;21.52;;
53833;SDS011;39735;51.432;5.482;2023-11-21T05:50:12;32.17;;;19.38;;
53833;SDS011;39735;51.432;5.482;2023-11-21T05:52:39;30.27;;;19.67;;
53833;SDS011;39735;51.432;5.482;2023-11-21T05:55:05;31.02;;;19.45;;
53833;SDS011;39735;51.432;5.482;2023-11-21T05:57:32;60.75;;;19.98;;
53833;SDS011;39735;51.432;5.482;2023-11-21T05:59:57;29.33;;;19.80;;
53833;SDS011;39735;51.432;5.482;2023-11-21T06:02:23;39.70;;;17.98;;
53833;SDS011;39735;51.432;5.482;2023-11-21T06:04:48;35.45;;;19.20;;
53833;SDS011;39735;51.432;5.482;2023-11-21T06:07:13;40.25;;;18.40;;
53833;SDS011;39735;51.432;5.482;2023-11-21T06:09:39;36.05;;;19.25;;
53833;SDS011;39735;51.432;5.482;2023-11-21T06:12:05;30.80;;;16.48;;
53833;SDS011;39735;51.432;5.482;2023-11-21T06:14:30;29.75;;;18.02;;
53833;SDS011;39735;51.432;5.482;2023-11-21T06:16:58;40.92;;;16.67;;
53833;SDS011;39735;51.432;5.482;2023-11-21T06:19:23;43.20;;;17.40;;
53833;SDS011;39735;51.432;5.482;2023-11-21T06:21:48;44.92;;;17.55;;
53833;SDS011;39735;51.432;5.482;2023-11-21T06:24:14;31.52;;;17.48;;
53833;SDS011;39735;51.432;5.482;2023-11-21T06:26:40;38.42;;;18.30;;
53833;SDS011;39735;51.432;5.482;2023-11-21T06:29:06;36.00;;;18.98;;
53833;SDS011;39735;51.432;5.482;2023-11-21T06:31:32;41.92;;;18.50;;
53833;SDS011;39735;51.432;5.482;2023-11-21T06:33:57;40.75;;;16.83;;
53833;SDS011;39735;51.432;5.482;2023-11-21T06:36:24;36.67;;;17.85;;
53833;SDS011;39735;51.432;5.482;2023-11-21T06:38:50;47.10;;;20.77;;
53833;SDS011;39735;51.432;5.482;2023-11-21T06:41:15;42.88;;;17.45;;
53833;SDS011;39735;51.432;5.482;2023-11-21T06:43:40;40.95;;;19.40;;
53833;SDS011;39735;51.432;5.482;2023-11-21T06:46:06;53.95;;;23.10;;
53833;SDS011;39735;51.432;5.482;2023-11-21T06:48:31;57.28;;;20.88;;
53833;SDS011;39735;51.432;5.482;2023-11-21T06:50:56;47.78;;;21.25;;
53833;SDS011;39735;51.432;5.482;2023-11-21T06:53:21;60.33;;;23.33;;
53833;SDS011;39735;51.432;5.482;2023-11-21T06:55:47;41.63;;;20.35;;
53833;SDS011;39735;51.432;5.482;2023-11-21T06:58:12;56.53;;;21.38;;
53833;SDS011;39735;51.432;5.482;2023-11-21T07:00:39;63.13;;;24.25;;
53833;SDS011;39735;51.432;5.482;2023-11-21T07:03:04;65.15;;;21.23;;
53833;SDS011;39735;51.432;5.482;2023-11-21T07:05:30;52.63;;;20.95;;
53833;SDS011;39735;51.432;5.482;2023-11-21T07:07:55;75.15;;;27.45;;
53833;SDS011;39735;51.432;5.482;2023-11-21T07:10:20;96.50;;;26.05;;
53833;SDS011;39735;51.432;5.482;2023-11-21T07:12:45;61.63;;;23.88;;
53833;SDS011;39735;51.432;5.482;2023-11-21T07:15:11;62.65;;;24.35;;
53833;SDS011;39735;51.432;5.482;2023-11-21T07:17:36;65.47;;;23.00;;
53833;SDS011;39735;51.432;5.482;2023-11-21T07:20:02;76.28;;;24.35;;
53833;SDS011;39735;51.432;5.482;2023-11-21T07:22:28;82.53;;;26.10;;
53833;SDS011;39735;51.432;5.482;2023-11-21T07:24:53;64.85;;;24.30;;
53833;SDS011;39735;51.432;5.482;2023-11-21T07:27:18;86.18;;;26.35;;
53833;SDS011;39735;51.432;5.482;2023-11-21T07:29:43;91.25;;;26.75;;
53833;SDS011;39735;51.432;5.482;2023-11-21T07:32:09;74.20;;;27.95;;
53833;SDS011;39735;51.432;5.482;2023-11-21T07:34:34;106.93;;;28.60;;
53833;SDS011;39735;51.432;5.482;2023-11-21T07:37:00;85.53;;;25.75;;
53833;SDS011;39735;51.432;5.482;2023-11-21T07:39:25;98.72;;;28.08;;
53833;SDS011;39735;51.432;5.482;2023-11-21T07:41:50;86.35;;;30.38;;
53833;SDS011;39735;51.432;5.482;2023-11-21T07:44:16;89.72;;;26.20;;
53833;SDS011;39735;51.432;5.482;2023-11-21T07:46:42;66.70;;;26.25;;
53833;SDS011;39735;51.432;5.482;2023-11-21T07:49:07;71.55;;;27.45;;
53833;SDS011;39735;51.432;5.482;2023-11-21T07:51:32;68.47;;;25.42;;
53833;SDS011;39735;51.432;5.482;2023-11-21T07:53:58;99.05;;;26.67;;
53833;SDS011;39735;51.432;5.482;2023-11-21T07:56:23;90.22;;;26.60;;
53833;SDS011;39735;51.432;5.482;2023-11-21T07:58:49;78.03;;;29.40;;
53833;SDS011;39735;51.432;5.482;2023-11-21T08:01:15;85.68;;;27.15;;
53833;SDS011;39735;51.432;5.482;2023-11-21T08:03:40;77.05;;;26.85;;
53833;SDS011;39735;51.432;5.482;2023-11-21T08:06:05;86.53;;;25.83;;
53833;SDS011;39735;51.432;5.482;2023-11-21T08:08:31;89.75;;;29.05;;
53833;SDS011;39735;51.432;5.482;2023-11-21T08:10:57;104.18;;;31.33;;
53833;SDS011;39735;51.432;5.482;2023-11-21T08:13:23;90.53;;;28.77;;
53833;SDS011;39735;51.432;5.482;2023-11-21T08:15:48;83.97;;;33.38;;
53833;SDS011;39735;51.432;5.482;2023-11-21T08:18:13;89.28;;;28.85;;
53833;SDS011;39735;51.432;5.482;2023-11-21T08:20:39;105.55;;;26.55;;
53833;SDS011;39735;51.432;5.482;2023-11-21T08:23:05;78.72;;;28.42;;
53833;SDS011;39735;51.432;5.482;2023-11-21T08:25:31;83.18;;;27.73;;
53833;SDS011;39735;51.432;5.482;2023-11-21T08:27:56;81.88;;;29.15;;
53833;SDS011;39735;51.432;5.482;2023-11-21T08:30:22;81.20;;;29.48;;
53833;SDS011;39735;51.432;5.482;2023-11-21T08:32:49;98.95;;;31.50;;
53833;SDS011;39735;51.432;5.482;2023-11-21T08:35:14;92.32;;;30.33;;
53833;SDS011;39735;51.432;5.482;2023-11-21T08:37:40;82.28;;;29.98;;
53833;SDS011;39735;51.432;5.482;2023-11-21T08:40:06;112.90;;;31.38;;
53833;SDS011;39735;51.432;5.482;2023-11-21T08:42:37;79.90;;;30.08;;
53833;SDS011;39735;51.432;5.482;2023-11-21T08:45:02;94.07;;;32.70;;
53833;SDS011;39735;51.432;5.482;2023-11-21T08:47:28;77.72;;;31.08;;
53833;SDS011;39735;51.432;5.482;2023-11-21T08:49:53;83.18;;;28.92;;
53833;SDS011;39735;51.432;5.482;2023-11-21T08:52:21;97.28;;;28.20;;
53833;SDS011;39735;51.432;5.482;2023-11-21T08:54:48;74.00;;;30.15;;
53833;SDS011;39735;51.432;5.482;2023-11-21T08:57:13;104.22;;;35.08;;
53833;SDS011;39735;51.432;5.482;2023-11-21T08:59:38;84.45;;;31.95;;
53833;SDS011;39735;51.432;5.482;2023-11-21T09:02:03;70.35;;;30.27;;
53833;SDS011;39735;51.432;5.482;2023-11-21T09:04:29;102.55;;;31.60;;
53833;SDS011;39735;51.432;5.482;2023-11-21T09:06:54;98.63;;;32.38;;
53833;SDS011;39735;51.432;5.482;2023-11-21T09:09:19;84.88;;;30.40;;
53833;SDS011;39735;51.432;5.482;2023-11-21T09:11:44;76.07;;;30.95;;
53833;SDS011;39735;51.432;5.482;2023-11-21T09:14:10;90.30;;;28.08;;
53833;SDS011;39735;51.432;5.482;2023-11-21T09:16:37;67.97;;;31.38;;
53833;SDS011;39735;51.432;5.482;2023-11-21T09:19:03;83.97;;;32.17;;
53833;SDS011;39735;51.432;5.482;2023-11-21T09:21:30;93.40;;;34.13;;
53833;SDS011;39735;51.432;5.482;2023-11-21T09:23:55;96.80;;;33.75;;
53833;SDS011;39735;51.432;5.482;2023-11-21T09:26:20;77.70;;;29.25;;
53833;SDS011;39735;51.432;5.482;2023-11-21T09:28:46;87.80;;;31.17;;
53833;SDS011;39735;51.432;5.482;2023-11-21T09:31:14;82.18;;;32.30;;
53833;SDS011;39735;51.432;5.482;2023-11-21T09:33:41;74.32;;;31.58;;
53833;SDS011;39735;51.432;5.482;2023-11-21T09:36:10;91.57;;;34.28;;
53833;SDS011;39735;51.432;5.482;2023-11-21T09:38:36;72.07;;;31.27;;
53833;SDS011;39735;51.432;5.482;2023-11-21T09:41:01;89.07;;;35.17;;
53833;SDS011;39735;51.432;5.482;2023-11-21T09:43:26;77.10;;;32.80;;
53833;SDS011;39735;51.432;5.482;2023-11-21T09:46:00;81.75;;;31.83;;
53833;SDS011;39735;51.432;5.482;2023-11-21T09:48:26;91.57;;;30.80;;
53833;SDS011;39735;51.432;5.482;2023-11-21T09:50:51;78.20;;;29.75;;
53833;SDS011;39735;51.432;5.482;2023-11-21T09:53:19;80.95;;;35.08;;
53833;SDS011;39735;51.432;5.482;2023-11-21T09:55:52;78.75;;;30.48;;
53833;SDS011;39735;51.432;5.482;2023-11-21T09:58:18;92.85;;;32.95;;
53833;SDS011;39735;51.432;5.482;2023-11-21T10:00:44;95.40;;;34.20;;
53833;SDS011;39735;51.432;5.482;2023-11-21T10:03:10;104.70;;;34.13;;
53833;SDS011;39735;51.432;5.482;2023-11-21T10:05:36;86.65;;;34.20;;
53833;SDS011;39735;51.432;5.482;2023-11-21T10:08:04;97.95;;;35.55;;
53833;SDS011;39735;51.432;5.482;2023-11-21T10:10:30;95.57;;;33.45;;
53833;SDS011;39735;51.432;5.482;2023-11-21T10:12:56;90.85;;;32.33;;
53833;SDS011;39735;51.432;5.482;2023-11-21T10:15:22;103.72;;;33.85;;
53833;SDS011;39735;51.432;5.482;2023-11-21T10:17:48;106.93;;;35.95;;
53833;SDS011;39735;51.432;5.482;2023-11-21T10:20:14;88.88;;;31.33;;
53833;SDS011;39735;51.432;5.482;2023-11-21T10:22:42;102.13;;;37.08;;
53833;SDS011;39735;51.432;5.482;2023-11-21T10:25:08;71.53;;;34.03;;
53833;SDS011;39735;51.432;5.482;2023-11-21T10:27:34;88.95;;;36.15;;
53833;SDS011;39735;51.432;5.482;2023-11-21T10:30:02;76.75;;;31.08;;
53833;SDS011;39735;51.432;5.482;2023-11-21T10:32:29;94.13;;;34.25;;
53833;SDS011;39735;51.432;5.482;2023-11-21T10:34:58;89.47;;;35.45;;
53833;SDS011;39735;51.432;5.482;2023-11-21T10:37:25;96.43;;;33.30;;
53833;SDS011;39735;51.432;5.482;2023-11-21T10:39:55;62.88;;;30.75;;
53833;SDS011;39735;51.432;5.482;2023-11-21T10:42:21;95.45;;;31.98;;
53833;SDS011;39735;51.432;5.482;2023-11-21T10:44:49;75.25;;;30.65;;
53833;SDS011;39735;51.432;5.482;2023-11-21T10:47:14;71.72;;;30.10;;
53833;SDS011;39735;51.432;5.482;2023-11-21T10:49:40;74.20;;;28.50;;
53833;SDS011;39735;51.432;5.482;2023-11-21T10:52:05;82.38;;;30.77;;
53833;SDS011;39735;51.432;5.482;2023-11-21T10:54:31;86.47;;;32.78;;
53833;SDS011;39735;51.432;5.482;2023-11-21T10:56:57;76.57;;;30.92;;
53833;SDS011;39735;51.432;5.482;2023-11-21T10:59:22;77.05;;;28.90;;
53833;SDS011;39735;51.432;5.482;2023-11-21T11:01:50;75.75;;;29.20;;
53833;SDS011;39735;51.432;5.482;2023-11-21T11:04:17;68.72;;;29.08;;
53833;SDS011;39735;51.432;5.482;2023-11-21T11:06:43;66.43;;;25.83;;
53833;SDS011;39735;51.432;5.482;2023-11-21T11:09:10;70.72;;;25.73;;
53833;SDS011;39735;51.432;5.482;2023-11-21T11:11:38;59.78;;;24.92;;
53833;SDS011;39735;51.432;5.482;2023-11-21T11:14:06;72.25;;;28.73;;
53833;SDS011;39735;51.432;5.482;2023-11-21T11:16:31;69.65;;;28.55;;
53833;SDS011;39735;51.432;5.482;2023-11-21T11:18:57;52.42;;;27.25;;
53833;SDS011;39735;51.432;5.482;2023-11-21T11:26:50;52.13;;;26.05;;
53833;SDS011;39735;51.432;5.482;2023-11-21T11:29:35;79.03;;;29.20;;
53833;SDS011;39735;51.432;5.482;2023-11-21T11:32:12;48.43;;;25.60;;
53833;SDS011;39735;51.432;5.482;2023-11-21T11:34:44;67.05;;;29.98;;
53833;SDS011;39735;51.432;5.482;2023-11-21T11:37:12;87.95;;;29.85;;
53833;SDS011;39735;51.432;5.482;2023-11-21T11:39:41;47.40;;;24.70;;
53833;SDS011;39735;51.432;5.482;2023-11-21T11:42:13;56.88;;;22.38;;
53833;SDS011;39735;51.432;5.482;2023-11-21T11:47:28;56.05;;;25.35;;
53833;SDS011;39735;51.432;5.482;2023-11-21T11:55:00;43.15;;;19.90;;
53833;SDS011;39735;51.432;5.482;2023-11-21T11:57:29;46.35;;;19.17;;
53833;SDS011;39735;51.432;5.482;2023-11-21T12:00:08;43.90;;;19.52;;
53833;SDS011;39735;51.432;5.482;2023-11-21T12:02:38;58.13;;;21.20;;
53833;SDS011;39735;51.432;5.482;2023-11-21T12:05:10;41.05;;;22.60;;
53833;SDS011;39735;51.432;5.482;2023-11-21T12:10:12;45.25;;;20.20;;
53833;SDS011;39735;51.432;5.482;2023-11-21T12:12:41;39.35;;;20.13;;
53833;SDS011;39735;51.432;5.482;2023-11-21T12:15:07;41.22;;;20.75;;
53833;SDS011;39735;51.432;5.482;2023-11-21T12:17:32;58.78;;;24.27;;
53833;SDS011;39735;51.432;5.482;2023-11-21T12:20:02;37.97;;;20.90;;
53833;SDS011;39735;51.432;5.482;2023-11-21T12:22:29;50.90;;;22.17;;
53833;SDS011;39735;51.432;5.482;2023-11-21T12:24:55;57.38;;;20.33;;
53833;SDS011;39735;51.432;5.482;2023-11-21T12:27:21;37.72;;;18.77;;
53833;SDS011;39735;51.432;5.482;2023-11-21T12:29:46;31.37;;;18.33;;
53833;SDS011;39735;51.432;5.482;2023-11-21T12:32:11;42.58;;;19.67;;
53833;SDS011;39735;51.432;5.482;2023-11-21T12:34:36;48.35;;;22.48;;
53833;SDS011;39735;51.432;5.482;2023-11-21T12:37:03;44.40;;;18.92;;
53833;SDS011;39735;51.432;5.482;2023-11-21T12:39:29;50.03;;;21.88;;
53833;SDS011;39735;51.432;5.482;2023-11-21T12:41:54;45.47;;;23.13;;
53833;SDS011;39735;51.432;5.482;2023-11-21T12:44:19;55.92;;;22.02;;
53833;SDS011;39735;51.432;5.482;2023-11-21T12:46:44;54.67;;;22.52;;
53833;SDS011;39735;51.432;5.482;2023-11-21T12:49:11;54.20;;;22.75;;
53833;SDS011;39735;51.432;5.482;2023-11-21T12:51:42;49.88;;;23.05;;
53833;SDS011;39735;51.432;5.482;2023-11-21T12:54:07;48.88;;;20.52;;
53833;SDS011;39735;51.432;5.482;2023-11-21T12:56:38;37.70;;;21.95;;
53833;SDS011;39735;51.432;5.482;2023-11-21T12:59:03;34.75;;;20.83;;
53833;SDS011;39735;51.432;5.482;2023-11-21T13:01:29;35.38;;;18.52;;
53833;SDS011;39735;51.432;5.482;2023-11-21T13:03:57;43.38;;;22.77;;
53833;SDS011;39735;51.432;5.482;2023-11-21T13:06:22;37.78;;;21.60;;
53833;SDS011;39735;51.432;5.482;2023-11-21T13:08:50;35.40;;;21.73;;
53833;SDS011;39735;51.432;5.482;2023-11-21T13:11:16;56.00;;;24.58;;
53833;SDS011;39735;51.432;5.482;2023-11-21T13:13:42;46.35;;;22.60;;
53833;SDS011;39735;51.432;5.482;2023-11-21T13:16:11;54.38;;;23.80;;
53833;SDS011;39735;51.432;5.482;2023-11-21T13:18:36;49.05;;;22.13;;
53833;SDS011;39735;51.432;5.482;2023-11-21T13:21:03;50.38;;;23.35;;
53833;SDS011;39735;51.432;5.482;2023-11-21T13:23:36;42.03;;;24.00;;
53833;SDS011;39735;51.432;5.482;2023-11-21T13:26:02;46.47;;;21.00;;
53833;SDS011;39735;51.432;5.482;2023-11-21T13:28:29;40.17;;;21.63;;
53833;SDS011;39735;51.432;5.482;2023-11-21T13:30:57;48.47;;;21.95;;
53833;SDS011;39735;51.432;5.482;2023-11-21T13:33:27;56.58;;;25.73;;
53833;SDS011;39735;51.432;5.482;2023-11-21T13:35:53;42.35;;;20.17;;
53833;SDS011;39735;51.432;5.482;2023-11-21T13:38:18;39.00;;;19.65;;
53833;SDS011;39735;51.432;5.482;2023-11-21T13:40:49;39.55;;;21.15;;
53833;SDS011;39735;51.432;5.482;2023-11-21T13:43:18;49.22;;;21.20;;
53833;SDS011;39735;51.432;5.482;2023-11-21T13:45:45;45.13;;;22.10;;
53833;SDS011;39735;51.432;5.482;2023-11-21T13:48:11;43.15;;;22.52;;
53833;SDS011;39735;51.432;5.482;2023-11-21T13:50:41;42.70;;;20.52;;
53833;SDS011;39735;51.432;5.482;2023-11-21T13:53:35;38.53;;;20.88;;
53833;SDS011;39735;51.432;5.482;2023-11-21T13:56:02;47.03;;;22.33;;
53833;SDS011;39735;51.432;5.482;2023-11-21T13:58:28;40.88;;;19.88;;
53833;SDS011;39735;51.432;5.482;2023-11-21T14:01:16;40.05;;;20.08;;
53833;SDS011;39735;51.432;5.482;2023-11-21T14:03:56;39.53;;;19.67;;
53833;SDS011;39735;51.432;5.482;2023-11-21T14:06:27;33.53;;;20.80;;
53833;SDS011;39735;51.432;5.482;2023-11-21T14:08:59;53.50;;;20.48;;
53833;SDS011;39735;51.432;5.482;2023-11-21T14:11:30;34.22;;;21.40;;
53833;SDS011;39735;51.432;5.482;2023-11-21T14:13:55;42.28;;;21.58;;
53833;SDS011;39735;51.432;5.482;2023-11-21T14:16:20;43.95;;;21.58;;
53833;SDS011;39735;51.432;5.482;2023-11-21T14:18:46;37.90;;;22.20;;
53833;SDS011;39735;51.432;5.482;2023-11-21T14:21:23;45.22;;;21.83;;
53833;SDS011;39735;51.432;5.482;2023-11-21T14:23:49;53.80;;;23.85;;
53833;SDS011;39735;51.432;5.482;2023-11-21T14:26:14;34.35;;;22.17;;
53833;SDS011;39735;51.432;5.482;2023-11-21T14:28:40;39.17;;;21.10;;
53833;SDS011;39735;51.432;5.482;2023-11-21T14:31:07;41.20;;;24.50;;